Suehiro Maru No.8 — JK5423 — position and weather

sailwx.info

Track history (hours):
 
Tides and Currents Weather Stations Pressure Air Temp Water Temp Dewpoint Dewpoint Depression Visibility Wind Speed Wind Dir Waves Ship Positions

Suehiro Maru No.8

Last reported at 2015-Mar-27 02:33 UTC. Time now 2015-Mar-27 03:35 UTC.
Position N 35°28' E 140°00'.

Length 88 m; draft 3.5 m.

Type: Cargo ship. MMSI: 431400446.

Date/timePositionNaut miles runAvg speedWind from/ knotsBaromVisibWave heightAir tempDewpointWater temp
2015-Mar-27 02:33N 35°28' E 140°00'0 0.0
2015-Mar-27 01:33N 35°28' E 140°00'0 0.0
2015-Mar-27 00:33N 35°28' E 140°00'0 0.0
2015-Mar-26 23:33N 35°28' E 140°00'2 2.3
2015-Mar-26 22:33N 35°30' E 139°58'3 3.3
2015-Mar-26 21:33N 35°32' E 139°55'7 7.2
2015-Mar-26 20:33N 35°38' E 139°50'0 0.0
2015-Mar-26 19:33N 35°38' E 139°50'0 0.0
2015-Mar-26 18:33N 35°38' E 139°50'0 0.0
2015-Mar-26 17:33N 35°38' E 139°50'0 0.0
2015-Mar-26 16:33N 35°38' E 139°50'0 0.0
2015-Mar-26 15:33N 35°38' E 139°50'0 0.0
2015-Mar-26 14:33N 35°38' E 139°50'0 0.0
2015-Mar-26 13:33N 35°38' E 139°50'0 0.0
2015-Mar-26 12:33N 35°38' E 139°50'0 0.0
2015-Mar-26 11:33N 35°38' E 139°50'0 0.0
2015-Mar-26 10:33N 35°38' E 139°50'0 0.0
2015-Mar-26 09:33N 35°38' E 139°50'0 0.0
2015-Mar-26 08:33N 35°38' E 139°50'0 0.0
2015-Mar-26 07:33N 35°38' E 139°50'0 0.0
2015-Mar-26 06:33N 35°38' E 139°50'0 0.0
2015-Mar-26 05:33N 35°38' E 139°50'0 0.0
2015-Mar-26 04:33N 35°38' E 139°50'0 0.0
2015-Mar-26 03:33N 35°38' E 139°50'0 0.0
2015-Mar-26 02:33N 35°38' E 139°50'0 0.0
2015-Mar-26 01:33N 35°38' E 139°50'0 0.0
2015-Mar-26 00:33N 35°38' E 139°50'0 0.0
2015-Mar-25 23:33N 35°38' E 139°50'0 0.0
2015-Mar-25 22:33N 35°38' E 139°50'0 0.0
2015-Mar-25 21:33N 35°38' E 139°50'0 0.1
2015-Mar-25 20:33N 35°38' E 139°50'3 3.1
2015-Mar-25 19:33N 35°35' E 139°52'0 0.0
2015-Mar-25 18:33N 35°35' E 139°52'7 7.1
2015-Mar-25 17:33N 35°28' E 139°51'1110.6
2015-Mar-25 16:33N 35°19' E 139°44'1010.4
2015-Mar-25 15:33N 35°09' E 139°46'1110.9
2015-Mar-25 14:33N 35°02' E 139°36'4 0.1
2015-Mar-24 08:32N 35°01' E 139°31'1212.5
2015-Mar-24 07:33N 35°09' E 139°43'1110.9
2015-Mar-24 06:33N 35°20' E 139°42'1211.8
2015-Mar-24 05:33N 35°30' E 139°49'8 7.8
2015-Mar-24 04:33N 35°38' E 139°50'0 0.0
2015-Mar-24 03:33N 35°38' E 139°50'0 0.0
2015-Mar-24 02:33N 35°38' E 139°50'0 0.0
2015-Mar-24 01:33N 35°38' E 139°50'0 0.0
2015-Mar-24 00:33N 35°38' E 139°50'0 0.0
2015-Mar-23 23:33N 35°38' E 139°50'0 0.0
2015-Mar-23 22:33N 35°38' E 139°50'0 0.0
2015-Mar-23 21:33N 35°38' E 139°50'0 0.0
2015-Mar-23 20:33N 35°38' E 139°50'0 0.0
2015-Mar-23 19:33N 35°38' E 139°50'0 0.0
2015-Mar-23 18:33N 35°38' E 139°50'0 0.0
2015-Mar-23 17:33N 35°38' E 139°50'0 0.0
2015-Mar-23 16:33N 35°38' E 139°50'0 0.0
2015-Mar-23 15:33N 35°38' E 139°50'0 0.0
2015-Mar-23 14:33N 35°38' E 139°50'0 0.0
2015-Mar-23 13:33N 35°38' E 139°50'0 0.0
2015-Mar-23 12:33N 35°38' E 139°50'0 0.0
2015-Mar-23 11:33N 35°38' E 139°50'0 0.0
2015-Mar-23 10:33N 35°38' E 139°50'0 0.0
2015-Mar-23 09:33N 35°38' E 139°50'0 0.0
2015-Mar-23 08:33N 35°38' E 139°50'0 0.0
2015-Mar-23 07:33N 35°38' E 139°50'0 0.0
2015-Mar-23 06:33N 35°38' E 139°50'0 0.0
2015-Mar-23 05:33N 35°38' E 139°50'0 0.0
2015-Mar-23 04:33N 35°38' E 139°50'0 0.0
2015-Mar-23 03:33N 35°38' E 139°50'0 0.0
2015-Mar-23 02:33N 35°38' E 139°50'0 0.0
2015-Mar-23 01:33N 35°38' E 139°50'0 0.0
2015-Mar-23 00:33N 35°38' E 139°50'0 0.0
2015-Mar-22 23:33N 35°38' E 139°50'0 0.0
2015-Mar-22 22:33N 35°38' E 139°50'0 0.1
2015-Mar-22 21:33N 35°38' E 139°50'5 4.7
2015-Mar-22 20:33N 35°34' E 139°53'3 3.0
2015-Mar-22 19:33N 35°31' E 139°52'1111.0
2015-Mar-22 18:33N 35°22' E 139°45'1111.0
2015-Mar-22 17:33N 35°11' E 139°46'1111.3
2015-Mar-22 16:33N 35°03' E 139°36'5612.5
2015-Mar-22 12:04N 34°34' E 138°38'  
Track history (hours):
 
Tides and Currents Weather Stations Pressure Air Temp Water Temp Dewpoint Dewpoint Depression Visibility Wind Speed Wind Dir Waves Ship Positions

Suehiro Maru No.8

Last reported at 2015-Mar-27 02:33 UTC. Time now 2015-Mar-27 03:35 UTC.
Position N 35°28' E 140°00'.

Length 88 m; draft 3.5 m.

Type: Cargo ship. MMSI: 431400446.

Date/timePositionNaut miles runAvg speedWind from/ knotsBaromVisibWave heightAir tempDewpointWater temp
2015-Mar-27 02:33N 35°28' E 140°00'0 0.0
2015-Mar-27 01:33N 35°28' E 140°00'0 0.0
2015-Mar-27 00:33N 35°28' E 140°00'0 0.0
2015-Mar-26 23:33N 35°28' E 140°00'2 2.3
2015-Mar-26 22:33N 35°30' E 139°58'3 3.3
2015-Mar-26 21:33N 35°32' E 139°55'7 7.2
2015-Mar-26 20:33N 35°38' E 139°50'0 0.0
2015-Mar-26 19:33N 35°38' E 139°50'0 0.0
2015-Mar-26 18:33N 35°38' E 139°50'0 0.0
2015-Mar-26 17:33N 35°38' E 139°50'0 0.0
2015-Mar-26 16:33N 35°38' E 139°50'0 0.0
2015-Mar-26 15:33N 35°38' E 139°50'0 0.0
2015-Mar-26 14:33N 35°38' E 139°50'0 0.0
2015-Mar-26 13:33N 35°38' E 139°50'0 0.0
2015-Mar-26 12:33N 35°38' E 139°50'0 0.0
2015-Mar-26 11:33N 35°38' E 139°50'0 0.0
2015-Mar-26 10:33N 35°38' E 139°50'0 0.0
2015-Mar-26 09:33N 35°38' E 139°50'0 0.0
2015-Mar-26 08:33N 35°38' E 139°50'0 0.0
2015-Mar-26 07:33N 35°38' E 139°50'0 0.0
2015-Mar-26 06:33N 35°38' E 139°50'0 0.0
2015-Mar-26 05:33N 35°38' E 139°50'0 0.0
2015-Mar-26 04:33N 35°38' E 139°50'0 0.0
2015-Mar-26 03:33N 35°38' E 139°50'0 0.0
2015-Mar-26 02:33N 35°38' E 139°50'0 0.0
2015-Mar-26 01:33N 35°38' E 139°50'0 0.0
2015-Mar-26 00:33N 35°38' E 139°50'0 0.0
2015-Mar-25 23:33N 35°38' E 139°50'0 0.0
2015-Mar-25 22:33N 35°38' E 139°50'0 0.0
2015-Mar-25 21:33N 35°38' E 139°50'0 0.1
2015-Mar-25 20:33N 35°38' E 139°50'3 3.1
2015-Mar-25 19:33N 35°35' E 139°52'0 0.0
2015-Mar-25 18:33N 35°35' E 139°52'7 7.1
2015-Mar-25 17:33N 35°28' E 139°51'1110.6
2015-Mar-25 16:33N 35°19' E 139°44'1010.4
2015-Mar-25 15:33N 35°09' E 139°46'1110.9
2015-Mar-25 14:33N 35°02' E 139°36'4 0.1
2015-Mar-24 08:32N 35°01' E 139°31'1212.5
2015-Mar-24 07:33N 35°09' E 139°43'1110.9
2015-Mar-24 06:33N 35°20' E 139°42'1211.8
2015-Mar-24 05:33N 35°30' E 139°49'8 7.8
2015-Mar-24 04:33N 35°38' E 139°50'0 0.0
2015-Mar-24 03:33N 35°38' E 139°50'0 0.0
2015-Mar-24 02:33N 35°38' E 139°50'0 0.0
2015-Mar-24 01:33N 35°38' E 139°50'0 0.0
2015-Mar-24 00:33N 35°38' E 139°50'0 0.0
2015-Mar-23 23:33N 35°38' E 139°50'0 0.0
2015-Mar-23 22:33N 35°38' E 139°50'0 0.0
2015-Mar-23 21:33N 35°38' E 139°50'0 0.0
2015-Mar-23 20:33N 35°38' E 139°50'0 0.0
2015-Mar-23 19:33N 35°38' E 139°50'0 0.0
2015-Mar-23 18:33N 35°38' E 139°50'0 0.0
2015-Mar-23 17:33N 35°38' E 139°50'0 0.0
2015-Mar-23 16:33N 35°38' E 139°50'0 0.0
2015-Mar-23 15:33N 35°38' E 139°50'0 0.0
2015-Mar-23 14:33N 35°38' E 139°50'0 0.0
2015-Mar-23 13:33N 35°38' E 139°50'0 0.0
2015-Mar-23 12:33N 35°38' E 139°50'0 0.0
2015-Mar-23 11:33N 35°38' E 139°50'0 0.0
2015-Mar-23 10:33N 35°38' E 139°50'0 0.0
2015-Mar-23 09:33N 35°38' E 139°50'0 0.0
2015-Mar-23 08:33N 35°38' E 139°50'0 0.0
2015-Mar-23 07:33N 35°38' E 139°50'0 0.0
2015-Mar-23 06:33N 35°38' E 139°50'0 0.0
2015-Mar-23 05:33N 35°38' E 139°50'0 0.0
2015-Mar-23 04:33N 35°38' E 139°50'0 0.0
2015-Mar-23 03:33N 35°38' E 139°50'0 0.0
2015-Mar-23 02:33N 35°38' E 139°50'0 0.0
2015-Mar-23 01:33N 35°38' E 139°50'0 0.0
2015-Mar-23 00:33N 35°38' E 139°50'0 0.0
2015-Mar-22 23:33N 35°38' E 139°50'0 0.0
2015-Mar-22 22:33N 35°38' E 139°50'0 0.1
2015-Mar-22 21:33N 35°38' E 139°50'5 4.7
2015-Mar-22 20:33N 35°34' E 139°53'3 3.0
2015-Mar-22 19:33N 35°31' E 139°52'1111.0
2015-Mar-22 18:33N 35°22' E 139°45'1111.0
2015-Mar-22 17:33N 35°11' E 139°46'1111.3
2015-Mar-22 16:33N 35°03' E 139°36'5612.5
2015-Mar-22 12:04N 34°34' E 138°38'  

Dump ship's entire track history